Sacramento, California
Traffic Map
Current Weather Conditions
Sacramento, California
Clear
Clear
24°
Feels Like: 24°
Wind Chill: 24° Ceiling: Unl
Heat Index: 24° Visibility: 10mi
Dew Point: 14° Wind: 10mph
Humidity: 55% Direction: 210° (SSW)
Pressure: 30.04in Gusts: 0mph
Raw Report DataKSAC 221853Z 21009KT 10SM CLR 24/14 A3004 RMK AO2 SLP171 T02390144
Traffic Incident Summary
Active as of:
Severity:
Category:
InformationThere was an issue retrieving the traffic information for this location. Please try a different location or try again shortly.
Advertisements
Track Severe Weather on mobile